sensor_id;sensor_type;location;lat;lon;timestamp;P1;durP1;ratioP1;P2;durP2;ratioP2
24715;SDS011;12822;50.124;8.678;2023-05-10T00:01:38;2.67;;;1.65;;
24715;SDS011;12822;50.124;8.678;2023-05-10T00:04:05;2.45;;;1.50;;
24715;SDS011;12822;50.124;8.678;2023-05-10T00:06:31;2.67;;;1.60;;
24715;SDS011;12822;50.124;8.678;2023-05-10T00:08:57;4.68;;;1.60;;
24715;SDS011;12822;50.124;8.678;2023-05-10T00:11:23;4.28;;;2.00;;
24715;SDS011;12822;50.124;8.678;2023-05-10T00:13:49;3.45;;;2.20;;
24715;SDS011;12822;50.124;8.678;2023-05-10T00:16:15;4.65;;;2.45;;
24715;SDS011;12822;50.124;8.678;2023-05-10T00:18:41;5.35;;;2.80;;
24715;SDS011;12822;50.124;8.678;2023-05-10T00:21:07;8.52;;;2.38;;
24715;SDS011;12822;50.124;8.678;2023-05-10T00:23:33;2.47;;;2.08;;
24715;SDS011;12822;50.124;8.678;2023-05-10T00:25:59;6.18;;;3.25;;
24715;SDS011;12822;50.124;8.678;2023-05-10T00:28:26;5.60;;;1.95;;
24715;SDS011;12822;50.124;8.678;2023-05-10T00:30:53;4.63;;;2.00;;
24715;SDS011;12822;50.124;8.678;2023-05-10T00:33:19;4.93;;;2.00;;
24715;SDS011;12822;50.124;8.678;2023-05-10T00:35:45;3.75;;;2.20;;
24715;SDS011;12822;50.124;8.678;2023-05-10T00:38:11;3.65;;;1.55;;
24715;SDS011;12822;50.124;8.678;2023-05-10T00:40:37;3.33;;;1.25;;
24715;SDS011;12822;50.124;8.678;2023-05-10T00:43:03;2.45;;;1.40;;
24715;SDS011;12822;50.124;8.678;2023-05-10T00:45:30;2.60;;;1.38;;
24715;SDS011;12822;50.124;8.678;2023-05-10T00:47:56;3.15;;;1.63;;
24715;SDS011;12822;50.124;8.678;2023-05-10T00:50:23;5.90;;;1.60;;
24715;SDS011;12822;50.124;8.678;2023-05-10T00:52:49;3.72;;;1.50;;
24715;SDS011;12822;50.124;8.678;2023-05-10T00:55:15;7.20;;;1.40;;
24715;SDS011;12822;50.124;8.678;2023-05-10T00:57:41;7.00;;;1.30;;
24715;SDS011;12822;50.124;8.678;2023-05-10T01:00:08;1.17;;;1.02;;
24715;SDS011;12822;50.124;8.678;2023-05-10T01:02:34;2.50;;;0.90;;
24715;SDS011;12822;50.124;8.678;2023-05-10T01:05:01;3.20;;;0.80;;
24715;SDS011;12822;50.124;8.678;2023-05-10T01:07:31;2.78;;;1.02;;
24715;SDS011;12822;50.124;8.678;2023-05-10T01:13:00;0.60;;;0.60;;
24715;SDS011;12822;50.124;8.678;2023-05-10T01:15:26;0.73;;;0.70;;
24715;SDS011;12822;50.124;8.678;2023-05-10T01:17:52;1.52;;;0.98;;
24715;SDS011;12822;50.124;8.678;2023-05-10T01:20:19;4.13;;;1.00;;
24715;SDS011;12822;50.124;8.678;2023-05-10T01:22:51;4.28;;;0.95;;
24715;SDS011;12822;50.124;8.678;2023-05-10T01:25:37;1.17;;;0.70;;
24715;SDS011;12822;50.124;8.678;2023-05-10T01:30:41;0.73;;;0.60;;
24715;SDS011;12822;50.124;8.678;2023-05-10T01:33:59;2.17;;;0.60;;
24715;SDS011;12822;50.124;8.678;2023-05-10T01:38:29;2.20;;;0.70;;
24715;SDS011;12822;50.124;8.678;2023-05-10T01:41:03;1.55;;;0.50;;
24715;SDS011;12822;50.124;8.678;2023-05-10T01:43:33;2.47;;;0.73;;
24715;SDS011;12822;50.124;8.678;2023-05-10T01:48:29;2.10;;;0.82;;
24715;SDS011;12822;50.124;8.678;2023-05-10T01:50:55;4.22;;;0.90;;
24715;SDS011;12822;50.124;8.678;2023-05-10T01:53:22;3.60;;;0.90;;
24715;SDS011;12822;50.124;8.678;2023-05-10T01:55:49;2.67;;;0.90;;
24715;SDS011;12822;50.124;8.678;2023-05-10T01:58:27;2.80;;;0.88;;
24715;SDS011;12822;50.124;8.678;2023-05-10T02:00:54;4.20;;;0.85;;
24715;SDS011;12822;50.124;8.678;2023-05-10T02:03:21;2.33;;;0.60;;
24715;SDS011;12822;50.124;8.678;2023-05-10T02:05:48;2.45;;;0.65;;
24715;SDS011;12822;50.124;8.678;2023-05-10T02:08:14;4.15;;;0.70;;
24715;SDS011;12822;50.124;8.678;2023-05-10T02:10:41;2.65;;;0.70;;
24715;SDS011;12822;50.124;8.678;2023-05-10T02:13:08;4.00;;;1.17;;
24715;SDS011;12822;50.124;8.678;2023-05-10T02:15:35;0.70;;;0.70;;
24715;SDS011;12822;50.124;8.678;2023-05-10T02:18:02;2.53;;;0.50;;
24715;SDS011;12822;50.124;8.678;2023-05-10T02:20:30;6.70;;;0.93;;
24715;SDS011;12822;50.124;8.678;2023-05-10T02:22:57;2.33;;;0.82;;
24715;SDS011;12822;50.124;8.678;2023-05-10T02:25:23;2.42;;;0.63;;
24715;SDS011;12822;50.124;8.678;2023-05-10T02:27:51;2.45;;;0.75;;
24715;SDS011;12822;50.124;8.678;2023-05-10T02:30:18;2.13;;;0.60;;
24715;SDS011;12822;50.124;8.678;2023-05-10T02:32:44;2.33;;;0.90;;
24715;SDS011;12822;50.124;8.678;2023-05-10T02:35:11;1.40;;;0.80;;
24715;SDS011;12822;50.124;8.678;2023-05-10T02:37:37;2.17;;;0.60;;
24715;SDS011;12822;50.124;8.678;2023-05-10T02:40:04;2.47;;;0.80;;
24715;SDS011;12822;50.124;8.678;2023-05-10T02:42:33;3.22;;;0.80;;
24715;SDS011;12822;50.124;8.678;2023-05-10T02:45:01;1.38;;;0.88;;
24715;SDS011;12822;50.124;8.678;2023-05-10T02:47:28;2.45;;;0.77;;
24715;SDS011;12822;50.124;8.678;2023-05-10T02:49:54;0.90;;;0.50;;
24715;SDS011;12822;50.124;8.678;2023-05-10T02:52:28;3.78;;;0.80;;
24715;SDS011;12822;50.124;8.678;2023-05-10T02:54:58;3.38;;;1.00;;
24715;SDS011;12822;50.124;8.678;2023-05-10T02:57:26;1.92;;;1.10;;
24715;SDS011;12822;50.124;8.678;2023-05-10T02:59:53;1.67;;;0.63;;
24715;SDS011;12822;50.124;8.678;2023-05-10T03:02:20;3.20;;;0.85;;
24715;SDS011;12822;50.124;8.678;2023-05-10T03:04:46;3.13;;;0.75;;
24715;SDS011;12822;50.124;8.678;2023-05-10T03:07:12;0.98;;;0.75;;
24715;SDS011;12822;50.124;8.678;2023-05-10T03:09:38;1.00;;;0.70;;
24715;SDS011;12822;50.124;8.678;2023-05-10T03:19:32;1.15;;;0.90;;
24715;SDS011;12822;50.124;8.678;2023-05-10T03:22:03;1.70;;;0.93;;
24715;SDS011;12822;50.124;8.678;2023-05-10T03:24:30;2.20;;;0.90;;
24715;SDS011;12822;50.124;8.678;2023-05-10T03:26:59;3.70;;;0.80;;
24715;SDS011;12822;50.124;8.678;2023-05-10T03:29:27;0.70;;;0.63;;
24715;SDS011;12822;50.124;8.678;2023-05-10T03:31:54;0.73;;;0.70;;
24715;SDS011;12822;50.124;8.678;2023-05-10T03:34:23;1.65;;;0.80;;
24715;SDS011;12822;50.124;8.678;2023-05-10T03:36:49;1.27;;;0.70;;
24715;SDS011;12822;50.124;8.678;2023-05-10T03:39:15;3.15;;;0.88;;
24715;SDS011;12822;50.124;8.678;2023-05-10T03:41:41;2.42;;;0.70;;
24715;SDS011;12822;50.124;8.678;2023-05-10T03:44:07;5.43;;;1.20;;
24715;SDS011;12822;50.124;8.678;2023-05-10T03:46:33;1.58;;;0.75;;
24715;SDS011;12822;50.124;8.678;2023-05-10T03:48:59;2.50;;;0.93;;
24715;SDS011;12822;50.124;8.678;2023-05-10T03:51:25;4.53;;;0.80;;
24715;SDS011;12822;50.124;8.678;2023-05-10T03:53:53;2.67;;;1.10;;
24715;SDS011;12822;50.124;8.678;2023-05-10T03:56:19;1.90;;;1.13;;
24715;SDS011;12822;50.124;8.678;2023-05-10T03:58:45;2.47;;;0.77;;
24715;SDS011;12822;50.124;8.678;2023-05-10T04:01:11;3.10;;;0.93;;
24715;SDS011;12822;50.124;8.678;2023-05-10T04:03:37;0.88;;;0.73;;
24715;SDS011;12822;50.124;8.678;2023-05-10T04:06:03;2.00;;;0.70;;
24715;SDS011;12822;50.124;8.678;2023-05-10T04:08:30;4.10;;;1.20;;
24715;SDS011;12822;50.124;8.678;2023-05-10T04:11:09;1.98;;;0.90;;
24715;SDS011;12822;50.124;8.678;2023-05-10T04:13:35;4.50;;;1.13;;
24715;SDS011;12822;50.124;8.678;2023-05-10T04:16:01;6.68;;;1.35;;
24715;SDS011;12822;50.124;8.678;2023-05-10T04:18:27;2.78;;;0.90;;
24715;SDS011;12822;50.124;8.678;2023-05-10T04:20:53;3.63;;;1.23;;
24715;SDS011;12822;50.124;8.678;2023-05-10T04:23:19;6.32;;;1.30;;
24715;SDS011;12822;50.124;8.678;2023-05-10T04:25:47;6.00;;;1.00;;
24715;SDS011;12822;50.124;8.678;2023-05-10T04:28:14;3.97;;;1.40;;
24715;SDS011;12822;50.124;8.678;2023-05-10T04:30:40;2.20;;;1.27;;
24715;SDS011;12822;50.124;8.678;2023-05-10T04:33:06;2.08;;;1.05;;
24715;SDS011;12822;50.124;8.678;2023-05-10T04:35:33;2.15;;;1.15;;
24715;SDS011;12822;50.124;8.678;2023-05-10T04:37:59;4.50;;;1.15;;
24715;SDS011;12822;50.124;8.678;2023-05-10T04:40:25;2.40;;;1.15;;
24715;SDS011;12822;50.124;8.678;2023-05-10T04:42:51;3.20;;;1.30;;
24715;SDS011;12822;50.124;8.678;2023-05-10T04:45:17;1.65;;;1.27;;
24715;SDS011;12822;50.124;8.678;2023-05-10T04:47:43;3.30;;;1.20;;
24715;SDS011;12822;50.124;8.678;2023-05-10T04:50:09;7.13;;;1.30;;
24715;SDS011;12822;50.124;8.678;2023-05-10T04:52:35;4.65;;;1.52;;
24715;SDS011;12822;50.124;8.678;2023-05-10T04:55:01;2.08;;;1.73;;
24715;SDS011;12822;50.124;8.678;2023-05-10T04:57:27;3.40;;;1.15;;
24715;SDS011;12822;50.124;8.678;2023-05-10T04:59:53;3.20;;;1.55;;
24715;SDS011;12822;50.124;8.678;2023-05-10T05:02:19;2.42;;;1.40;;
24715;SDS011;12822;50.124;8.678;2023-05-10T05:04:45;3.40;;;1.75;;
24715;SDS011;12822;50.124;8.678;2023-05-10T05:07:11;3.85;;;1.60;;
24715;SDS011;12822;50.124;8.678;2023-05-10T05:09:37;2.97;;;1.73;;
24715;SDS011;12822;50.124;8.678;2023-05-10T05:12:03;4.20;;;1.60;;
24715;SDS011;12822;50.124;8.678;2023-05-10T05:14:29;9.63;;;1.75;;
24715;SDS011;12822;50.124;8.678;2023-05-10T05:16:55;4.35;;;1.70;;
24715;SDS011;12822;50.124;8.678;2023-05-10T05:19:21;4.50;;;1.83;;
24715;SDS011;12822;50.124;8.678;2023-05-10T05:21:47;4.40;;;1.80;;
24715;SDS011;12822;50.124;8.678;2023-05-10T05:24:13;4.53;;;1.75;;
24715;SDS011;12822;50.124;8.678;2023-05-10T05:26:39;12.75;;;1.95;;
24715;SDS011;12822;50.124;8.678;2023-05-10T05:29:06;5.65;;;1.80;;
24715;SDS011;12822;50.124;8.678;2023-05-10T05:31:32;3.53;;;2.00;;
24715;SDS011;12822;50.124;8.678;2023-05-10T05:33:58;7.97;;;2.50;;
24715;SDS011;12822;50.124;8.678;2023-05-10T05:36:24;5.93;;;2.72;;
24715;SDS011;12822;50.124;8.678;2023-05-10T05:38:50;6.38;;;2.90;;
24715;SDS011;12822;50.124;8.678;2023-05-10T05:41:16;7.78;;;3.20;;
24715;SDS011;12822;50.124;8.678;2023-05-10T05:43:42;12.73;;;3.42;;
24715;SDS011;12822;50.124;8.678;2023-05-10T05:46:08;8.23;;;3.33;;
24715;SDS011;12822;50.124;8.678;2023-05-10T05:48:34;7.90;;;3.35;;
24715;SDS011;12822;50.124;8.678;2023-05-10T05:51:00;8.15;;;3.28;;
24715;SDS011;12822;50.124;8.678;2023-05-10T05:53:26;11.55;;;3.65;;
24715;SDS011;12822;50.124;8.678;2023-05-10T05:58:19;13.38;;;3.28;;
24715;SDS011;12822;50.124;8.678;2023-05-10T06:00:45;10.63;;;3.10;;
24715;SDS011;12822;50.124;8.678;2023-05-10T06:03:11;30.65;;;3.35;;
24715;SDS011;12822;50.124;8.678;2023-05-10T06:05:37;6.25;;;3.45;;
24715;SDS011;12822;50.124;8.678;2023-05-10T06:08:03;10.88;;;3.60;;
24715;SDS011;12822;50.124;8.678;2023-05-10T06:10:30;13.38;;;5.15;;
24715;SDS011;12822;50.124;8.678;2023-05-10T06:12:56;15.35;;;3.75;;
24715;SDS011;12822;50.124;8.678;2023-05-10T06:15:22;20.90;;;3.88;;
24715;SDS011;12822;50.124;8.678;2023-05-10T06:17:48;9.85;;;4.03;;
24715;SDS011;12822;50.124;8.678;2023-05-10T06:20:14;4.63;;;3.03;;
24715;SDS011;12822;50.124;8.678;2023-05-10T06:22:41;10.63;;;3.00;;
24715;SDS011;12822;50.124;8.678;2023-05-10T06:25:07;7.45;;;2.60;;
24715;SDS011;12822;50.124;8.678;2023-05-10T06:27:33;5.97;;;2.92;;
24715;SDS011;12822;50.124;8.678;2023-05-10T06:29:59;10.48;;;3.00;;
24715;SDS011;12822;50.124;8.678;2023-05-10T06:32:25;8.52;;;2.92;;
24715;SDS011;12822;50.124;8.678;2023-05-10T06:34:52;12.20;;;3.33;;
24715;SDS011;12822;50.124;8.678;2023-05-10T06:37:18;4.35;;;2.60;;
24715;SDS011;12822;50.124;8.678;2023-05-10T06:39:44;20.45;;;3.60;;
24715;SDS011;12822;50.124;8.678;2023-05-10T06:42:10;5.10;;;2.95;;
24715;SDS011;12822;50.124;8.678;2023-05-10T06:44:35;7.38;;;3.13;;
24715;SDS011;12822;50.124;8.678;2023-05-10T06:47:02;9.77;;;3.00;;
24715;SDS011;12822;50.124;8.678;2023-05-10T06:49:28;12.48;;;4.03;;
24715;SDS011;12822;50.124;8.678;2023-05-10T06:51:55;10.82;;;3.70;;
24715;SDS011;12822;50.124;8.678;2023-05-10T06:54:21;9.35;;;3.38;;
24715;SDS011;12822;50.124;8.678;2023-05-10T06:56:48;32.67;;;4.65;;
24715;SDS011;12822;50.124;8.678;2023-05-10T06:59:14;14.90;;;3.35;;
24715;SDS011;12822;50.124;8.678;2023-05-10T07:01:41;8.73;;;3.47;;
24715;SDS011;12822;50.124;8.678;2023-05-10T07:04:07;23.90;;;4.13;;
24715;SDS011;12822;50.124;8.678;2023-05-10T07:06:33;23.20;;;4.47;;
24715;SDS011;12822;50.124;8.678;2023-05-10T07:09:00;56.55;;;6.65;;
24715;SDS011;12822;50.124;8.678;2023-05-10T07:11:26;13.30;;;4.25;;
24715;SDS011;12822;50.124;8.678;2023-05-10T07:13:52;19.80;;;3.88;;
24715;SDS011;12822;50.124;8.678;2023-05-10T07:16:18;24.90;;;4.25;;
24715;SDS011;12822;50.124;8.678;2023-05-10T07:18:44;9.93;;;2.80;;
24715;SDS011;12822;50.124;8.678;2023-05-10T07:21:10;13.18;;;3.40;;
24715;SDS011;12822;50.124;8.678;2023-05-10T07:23:36;8.02;;;3.38;;
24715;SDS011;12822;50.124;8.678;2023-05-10T07:26:02;34.30;;;5.03;;
24715;SDS011;12822;50.124;8.678;2023-05-10T07:28:28;17.10;;;3.67;;
24715;SDS011;12822;50.124;8.678;2023-05-10T07:30:54;10.63;;;3.47;;
24715;SDS011;12822;50.124;8.678;2023-05-10T07:33:20;21.15;;;3.60;;
24715;SDS011;12822;50.124;8.678;2023-05-10T07:35:46;38.47;;;4.65;;
24715;SDS011;12822;50.124;8.678;2023-05-10T07:38:12;23.95;;;4.47;;
24715;SDS011;12822;50.124;8.678;2023-05-10T07:40:39;27.55;;;3.60;;
24715;SDS011;12822;50.124;8.678;2023-05-10T07:43:05;13.13;;;3.78;;
24715;SDS011;12822;50.124;8.678;2023-05-10T07:45:31;15.50;;;3.60;;
24715;SDS011;12822;50.124;8.678;2023-05-10T07:47:57;41.05;;;4.18;;
24715;SDS011;12822;50.124;8.678;2023-05-10T07:50:23;22.60;;;3.97;;
24715;SDS011;12822;50.124;8.678;2023-05-10T07:52:49;54.55;;;5.72;;
24715;SDS011;12822;50.124;8.678;2023-05-10T07:55:15;70.55;;;6.45;;
24715;SDS011;12822;50.124;8.678;2023-05-10T07:57:41;22.35;;;4.65;;
24715;SDS011;12822;50.124;8.678;2023-05-10T08:00:08;14.20;;;3.83;;
24715;SDS011;12822;50.124;8.678;2023-05-10T08:02:35;6.88;;;2.42;;
24715;SDS011;12822;50.124;8.678;2023-05-10T08:05:01;56.47;;;5.63;;
24715;SDS011;12822;50.124;8.678;2023-05-10T08:07:27;11.32;;;2.85;;
24715;SDS011;12822;50.124;8.678;2023-05-10T08:09:53;9.13;;;3.03;;
24715;SDS011;12822;50.124;8.678;2023-05-10T08:12:19;12.77;;;3.20;;
24715;SDS011;12822;50.124;8.678;2023-05-10T08:14:45;18.70;;;3.75;;
24715;SDS011;12822;50.124;8.678;2023-05-10T08:17:11;10.45;;;3.20;;
24715;SDS011;12822;50.124;8.678;2023-05-10T08:19:37;19.50;;;3.33;;
24715;SDS011;12822;50.124;8.678;2023-05-10T08:22:03;11.25;;;2.90;;
24715;SDS011;12822;50.124;8.678;2023-05-10T08:24:29;12.55;;;3.00;;
24715;SDS011;12822;50.124;8.678;2023-05-10T08:26:55;8.32;;;3.33;;
24715;SDS011;12822;50.124;8.678;2023-05-10T08:29:22;10.27;;;3.08;;
24715;SDS011;12822;50.124;8.678;2023-05-10T08:31:48;24.63;;;7.28;;
24715;SDS011;12822;50.124;8.678;2023-05-10T08:34:14;22.48;;;4.95;;
24715;SDS011;12822;50.124;8.678;2023-05-10T08:36:40;10.38;;;2.55;;
24715;SDS011;12822;50.124;8.678;2023-05-10T08:39:06;6.38;;;2.38;;
24715;SDS011;12822;50.124;8.678;2023-05-10T08:41:33;7.85;;;2.22;;
24715;SDS011;12822;50.124;8.678;2023-05-10T08:43:59;6.53;;;2.90;;
24715;SDS011;12822;50.124;8.678;2023-05-10T08:46:28;8.32;;;2.08;;
24715;SDS011;12822;50.124;8.678;2023-05-10T08:48:55;4.75;;;2.38;;
24715;SDS011;12822;50.124;8.678;2023-05-10T08:51:23;6.47;;;2.10;;
24715;SDS011;12822;50.124;8.678;2023-05-10T08:53:51;10.02;;;2.05;;
24715;SDS011;12822;50.124;8.678;2023-05-10T08:56:18;5.53;;;2.45;;
24715;SDS011;12822;50.124;8.678;2023-05-10T08:58:44;7.45;;;2.20;;
24715;SDS011;12822;50.124;8.678;2023-05-10T09:01:10;14.07;;;2.63;;
24715;SDS011;12822;50.124;8.678;2023-05-10T09:03:38;5.60;;;1.95;;
24715;SDS011;12822;50.124;8.678;2023-05-10T09:06:04;4.88;;;2.20;;
24715;SDS011;12822;50.124;8.678;2023-05-10T09:08:31;7.13;;;2.20;;
24715;SDS011;12822;50.124;8.678;2023-05-10T09:10:58;26.27;;;2.92;;
24715;SDS011;12822;50.124;8.678;2023-05-10T09:13:26;36.47;;;3.70;;
24715;SDS011;12822;50.124;8.678;2023-05-10T09:15:53;14.82;;;2.60;;
24715;SDS011;12822;50.124;8.678;2023-05-10T09:18:19;37.97;;;3.35;;
24715;SDS011;12822;50.124;8.678;2023-05-10T09:20:45;18.88;;;3.30;;
24715;SDS011;12822;50.124;8.678;2023-05-10T09:23:11;18.70;;;2.50;;
24715;SDS011;12822;50.124;8.678;2023-05-10T09:25:37;9.93;;;2.72;;
24715;SDS011;12822;50.124;8.678;2023-05-10T09:28:05;12.93;;;2.00;;
24715;SDS011;12822;50.124;8.678;2023-05-10T09:30:32;14.68;;;2.45;;
24715;SDS011;12822;50.124;8.678;2023-05-10T09:32:58;7.82;;;2.33;;
24715;SDS011;12822;50.124;8.678;2023-05-10T09:35:25;8.02;;;1.95;;
24715;SDS011;12822;50.124;8.678;2023-05-10T09:37:52;13.30;;;2.55;;
24715;SDS011;12822;50.124;8.678;2023-05-10T09:40:19;16.13;;;2.67;;
24715;SDS011;12822;50.124;8.678;2023-05-10T09:42:56;46.10;;;4.53;;
24715;SDS011;12822;50.124;8.678;2023-05-10T09:45:23;17.15;;;2.75;;
24715;SDS011;12822;50.124;8.678;2023-05-10T09:47:49;9.95;;;2.20;;
24715;SDS011;12822;50.124;8.678;2023-05-10T09:50:15;10.38;;;1.67;;
24715;SDS011;12822;50.124;8.678;2023-05-10T09:55:13;17.30;;;2.47;;
24715;SDS011;12822;50.124;8.678;2023-05-10T09:57:39;5.28;;;1.30;;
24715;SDS011;12822;50.124;8.678;2023-05-10T10:00:06;51.47;;;3.85;;
24715;SDS011;12822;50.124;8.678;2023-05-10T10:02:32;3.67;;;1.10;;
24715;SDS011;12822;50.124;8.678;2023-05-10T10:05:02;27.25;;;1.95;;
24715;SDS011;12822;50.124;8.678;2023-05-10T10:07:28;4.95;;;1.50;;
24715;SDS011;12822;50.124;8.678;2023-05-10T10:09:55;14.43;;;2.05;;
24715;SDS011;12822;50.124;8.678;2023-05-10T10:12:21;22.48;;;2.28;;
24715;SDS011;12822;50.124;8.678;2023-05-10T10:14:47;17.75;;;2.60;;
24715;SDS011;12822;50.124;8.678;2023-05-10T10:17:15;24.63;;;3.15;;
24715;SDS011;12822;50.124;8.678;2023-05-10T10:19:41;27.70;;;2.88;;
24715;SDS011;12822;50.124;8.678;2023-05-10T10:22:07;91.00;;;8.55;;
24715;SDS011;12822;50.124;8.678;2023-05-10T10:24:36;65.47;;;6.32;;
24715;SDS011;12822;50.124;8.678;2023-05-10T10:27:07;35.85;;;4.72;;
24715;SDS011;12822;50.124;8.678;2023-05-10T10:29:44;5.65;;;1.63;;
24715;SDS011;12822;50.124;8.678;2023-05-10T10:34:45;10.82;;;2.05;;
24715;SDS011;12822;50.124;8.678;2023-05-10T10:37:11;4.60;;;1.85;;
24715;SDS011;12822;50.124;8.678;2023-05-10T10:39:38;9.50;;;2.80;;
24715;SDS011;12822;50.124;8.678;2023-05-10T10:42:04;12.45;;;2.97;;
24715;SDS011;12822;50.124;8.678;2023-05-10T10:49:27;7.03;;;1.67;;
24715;SDS011;12822;50.124;8.678;2023-05-10T10:52:13;4.70;;;1.20;;
24715;SDS011;12822;50.124;8.678;2023-05-10T10:54:40;71.35;;;4.85;;
24715;SDS011;12822;50.124;8.678;2023-05-10T10:57:10;13.93;;;1.50;;
24715;SDS011;12822;50.124;8.678;2023-05-10T10:59:41;49.10;;;3.53;;
24715;SDS011;12822;50.124;8.678;2023-05-10T11:02:08;13.90;;;2.20;;
24715;SDS011;12822;50.124;8.678;2023-05-10T11:04:43;20.10;;;1.75;;
24715;SDS011;12822;50.124;8.678;2023-05-10T11:07:17;15.63;;;1.88;;
24715;SDS011;12822;50.124;8.678;2023-05-10T11:09:44;14.07;;;1.90;;
24715;SDS011;12822;50.124;8.678;2023-05-10T11:12:11;27.70;;;1.67;;
24715;SDS011;12822;50.124;8.678;2023-05-10T11:14:37;20.13;;;1.85;;
24715;SDS011;12822;50.124;8.678;2023-05-10T11:17:22;22.27;;;2.00;;
24715;SDS011;12822;50.124;8.678;2023-05-10T11:20:06;7.90;;;1.15;;
24715;SDS011;12822;50.124;8.678;2023-05-10T11:22:48;10.27;;;1.35;;
24715;SDS011;12822;50.124;8.678;2023-05-10T11:25:15;8.15;;;1.00;;
24715;SDS011;12822;50.124;8.678;2023-05-10T11:27:41;5.88;;;1.20;;
24715;SDS011;12822;50.124;8.678;2023-05-10T11:30:09;6.78;;;1.40;;
24715;SDS011;12822;50.124;8.678;2023-05-10T11:32:38;9.07;;;0.98;;
24715;SDS011;12822;50.124;8.678;2023-05-10T11:35:08;5.70;;;1.67;;
24715;SDS011;12822;50.124;8.678;2023-05-10T11:37:34;8.15;;;1.55;;
24715;SDS011;12822;50.124;8.678;2023-05-10T11:40:00;7.57;;;1.35;;
24715;SDS011;12822;50.124;8.678;2023-05-10T11:42:27;9.50;;;1.77;;
24715;SDS011;12822;50.124;8.678;2023-05-10T11:44:54;7.68;;;1.27;;
24715;SDS011;12822;50.124;8.678;2023-05-10T11:47:20;12.15;;;2.20;;
24715;SDS011;12822;50.124;8.678;2023-05-10T11:49:46;4.45;;;2.13;;
24715;SDS011;12822;50.124;8.678;2023-05-10T11:52:12;7.72;;;2.25;;
24715;SDS011;12822;50.124;8.678;2023-05-10T11:54:44;3.60;;;1.33;;
24715;SDS011;12822;50.124;8.678;2023-05-10T11:57:11;18.58;;;3.35;;
24715;SDS011;12822;50.124;8.678;2023-05-10T11:59:37;23.77;;;2.13;;
24715;SDS011;12822;50.124;8.678;2023-05-10T12:02:03;11.20;;;1.98;;
24715;SDS011;12822;50.124;8.678;2023-05-10T12:04:29;7.85;;;1.50;;
24715;SDS011;12822;50.124;8.678;2023-05-10T12:06:55;8.75;;;1.92;;
24715;SDS011;12822;50.124;8.678;2023-05-10T12:09:21;9.82;;;1.90;;
24715;SDS011;12822;50.124;8.678;2023-05-10T12:11:47;17.23;;;2.25;;
24715;SDS011;12822;50.124;8.678;2023-05-10T12:14:13;12.45;;;1.92;;
24715;SDS011;12822;50.124;8.678;2023-05-10T12:16:40;5.28;;;1.50;;
24715;SDS011;12822;50.124;8.678;2023-05-10T12:19:08;9.95;;;1.90;;
24715;SDS011;12822;50.124;8.678;2023-05-10T12:21:34;5.95;;;1.70;;
24715;SDS011;12822;50.124;8.678;2023-05-10T12:24:01;19.05;;;2.20;;
24715;SDS011;12822;50.124;8.678;2023-05-10T12:26:28;15.10;;;1.90;;
24715;SDS011;12822;50.124;8.678;2023-05-10T12:28:54;5.65;;;1.55;;
24715;SDS011;12822;50.124;8.678;2023-05-10T12:31:20;7.55;;;1.60;;
24715;SDS011;12822;50.124;8.678;2023-05-10T12:33:47;11.18;;;1.70;;
24715;SDS011;12822;50.124;8.678;2023-05-10T12:36:14;5.43;;;1.40;;
24715;SDS011;12822;50.124;8.678;2023-05-10T12:38:41;6.85;;;1.60;;
24715;SDS011;12822;50.124;8.678;2023-05-10T12:41:14;4.47;;;1.92;;
24715;SDS011;12822;50.124;8.678;2023-05-10T12:43:40;3.28;;;1.15;;
24715;SDS011;12822;50.124;8.678;2023-05-10T12:46:12;2.97;;;0.80;;
24715;SDS011;12822;50.124;8.678;2023-05-10T12:48:39;2.30;;;0.70;;
24715;SDS011;12822;50.124;8.678;2023-05-10T12:51:05;28.23;;;1.80;;
24715;SDS011;12822;50.124;8.678;2023-05-10T12:53:37;3.35;;;0.57;;
24715;SDS011;12822;50.124;8.678;2023-05-10T12:56:03;7.30;;;0.98;;
24715;SDS011;12822;50.124;8.678;2023-05-10T12:58:29;10.55;;;1.50;;
24715;SDS011;12822;50.124;8.678;2023-05-10T13:00:55;40.97;;;2.50;;
24715;SDS011;12822;50.124;8.678;2023-05-10T13:03:21;13.07;;;1.10;;
24715;SDS011;12822;50.124;8.678;2023-05-10T13:05:47;11.57;;;1.10;;
24715;SDS011;12822;50.124;8.678;2023-05-10T13:08:13;18.73;;;1.77;;
24715;SDS011;12822;50.124;8.678;2023-05-10T13:10:39;13.13;;;1.27;;
24715;SDS011;12822;50.124;8.678;2023-05-10T13:13:05;13.00;;;1.35;;
24715;SDS011;12822;50.124;8.678;2023-05-10T13:15:32;7.72;;;1.00;;
24715;SDS011;12822;50.124;8.678;2023-05-10T13:17:58;6.63;;;0.63;;
24715;SDS011;12822;50.124;8.678;2023-05-10T13:20:25;9.45;;;1.00;;
24715;SDS011;12822;50.124;8.678;2023-05-10T13:22:51;12.07;;;1.20;;
24715;SDS011;12822;50.124;8.678;2023-05-10T13:25:18;8.80;;;1.42;;
24715;SDS011;12822;50.124;8.678;2023-05-10T13:27:44;8.27;;;1.30;;
24715;SDS011;12822;50.124;8.678;2023-05-10T13:30:10;9.88;;;1.27;;
24715;SDS011;12822;50.124;8.678;2023-05-10T13:32:36;6.57;;;0.73;;
24715;SDS011;12822;50.124;8.678;2023-05-10T13:35:02;6.90;;;0.98;;
24715;SDS011;12822;50.124;8.678;2023-05-10T13:37:29;6.68;;;1.20;;
24715;SDS011;12822;50.124;8.678;2023-05-10T13:39:55;17.85;;;1.50;;
24715;SDS011;12822;50.124;8.678;2023-05-10T13:42:22;8.95;;;1.40;;
24715;SDS011;12822;50.124;8.678;2023-05-10T13:44:48;5.70;;;1.10;;
24715;SDS011;12822;50.124;8.678;2023-05-10T13:47:14;12.07;;;1.15;;
24715;SDS011;12822;50.124;8.678;2023-05-10T13:49:40;14.00;;;1.55;;
24715;SDS011;12822;50.124;8.678;2023-05-10T13:52:06;39.20;;;2.88;;
24715;SDS011;12822;50.124;8.678;2023-05-10T13:54:33;13.65;;;1.30;;
24715;SDS011;12822;50.124;8.678;2023-05-10T13:56:59;18.80;;;1.80;;
24715;SDS011;12822;50.124;8.678;2023-05-10T13:59:25;7.18;;;1.05;;
24715;SDS011;12822;50.124;8.678;2023-05-10T14:01:51;26.40;;;1.58;;
24715;SDS011;12822;50.124;8.678;2023-05-10T14:04:17;9.50;;;1.13;;
24715;SDS011;12822;50.124;8.678;2023-05-10T14:06:43;4.38;;;1.05;;
24715;SDS011;12822;50.124;8.678;2023-05-10T14:09:09;1.88;;;0.70;;
24715;SDS011;12822;50.124;8.678;2023-05-10T14:11:35;2.00;;;1.08;;
24715;SDS011;12822;50.124;8.678;2023-05-10T14:14:01;4.53;;;0.93;;
24715;SDS011;12822;50.124;8.678;2023-05-10T14:16:28;25.45;;;1.88;;
24715;SDS011;12822;50.124;8.678;2023-05-10T14:18:54;50.78;;;3.90;;
24715;SDS011;12822;50.124;8.678;2023-05-10T14:21:20;6.78;;;1.00;;
24715;SDS011;12822;50.124;8.678;2023-05-10T14:23:46;11.90;;;1.58;;
24715;SDS011;12822;50.124;8.678;2023-05-10T14:26:15;7.53;;;1.10;;
24715;SDS011;12822;50.124;8.678;2023-05-10T14:28:41;14.00;;;1.95;;
24715;SDS011;12822;50.124;8.678;2023-05-10T14:31:07;36.92;;;3.50;;
24715;SDS011;12822;50.124;8.678;2023-05-10T14:33:33;62.53;;;6.32;;
24715;SDS011;12822;50.124;8.678;2023-05-10T14:35:59;40.25;;;3.15;;
24715;SDS011;12822;50.124;8.678;2023-05-10T14:38:25;78.35;;;7.43;;
24715;SDS011;12822;50.124;8.678;2023-05-10T14:40:51;92.43;;;4.78;;
24715;SDS011;12822;50.124;8.678;2023-05-10T14:43:17;11.02;;;1.52;;
24715;SDS011;12822;50.124;8.678;2023-05-10T14:45:43;32.30;;;3.20;;
24715;SDS011;12822;50.124;8.678;2023-05-10T14:48:10;94.93;;;9.25;;
24715;SDS011;12822;50.124;8.678;2023-05-10T14:50:40;29.98;;;3.15;;
24715;SDS011;12822;50.124;8.678;2023-05-10T14:53:06;35.15;;;2.50;;
24715;SDS011;12822;50.124;8.678;2023-05-10T14:55:32;44.08;;;2.90;;
24715;SDS011;12822;50.124;8.678;2023-05-10T14:57:59;74.78;;;7.13;;
24715;SDS011;12822;50.124;8.678;2023-05-10T15:00:25;9.77;;;1.58;;
24715;SDS011;12822;50.124;8.678;2023-05-10T15:02:51;6.63;;;1.23;;
24715;SDS011;12822;50.124;8.678;2023-05-10T15:05:17;7.50;;;1.15;;
24715;SDS011;12822;50.124;8.678;2023-05-10T15:07:43;4.05;;;0.80;;
24715;SDS011;12822;50.124;8.678;2023-05-10T15:10:09;8.07;;;1.25;;
24715;SDS011;12822;50.124;8.678;2023-05-10T15:12:36;6.93;;;1.30;;